Latest Weather Observations for Spitfire Channel

IDQ60801

Issued at 2:05 am EST Friday 3 October 2014 (issued every 30 minutes, with the page automatically refreshed every 10 minutes)

About weather observations | Map of weather stations | Latest weather observations for QLD | Other Formats
Station Details ID: 040927 Name: SPITFIRE CHANNEL BEACON Lat: -27.05 Lon: 153.27 Height: 7.0 m
Data from the previous 72 hours. | See also: Recent months for locations in Queensland
Date/Time
EST
Temp
°C
App
Temp
°C
Dew
Point
Rel
Hum
%
Delta-T
°C
Wind Press
QNH
hPa
Press
MSL
hPa
Rain
since 9 am
mm
Dir
 
Spd
km/h
Gust
km/h
Spd
kts
Gust
kts
03/02:00am - - - - - WSW 11 13 6 7 - - -
03/01:30am - - - - - WNW 11 13 6 7 - - -
03/01:00am - - - - - N 13 17 7 9 - - -
03/12:30am - - - - - N 13 17 7 9 - - -
03/12:00am - - - - - N 13 15 7 8 - - -
 
Date/Time
EST
Temp
°C
App
Temp
°C
Dew
Point
Rel
Hum
%
Delta-T
°C
Wind Press
QNH
hPa
Press
MSL
hPa
Rain
since 9 am
mm
Dir
 
Spd
km/h
Gust
km/h
Spd
kts
Gust
kts
02/11:30pm - - - - - N 11 15 6 8 - - -
02/11:00pm - - - - - N 13 17 7 9 - - -
02/10:30pm - - - - - NNE 15 19 8 10 - - -
02/10:00pm - - - - - NNE 17 19 9 10 - - -
02/09:30pm - - - - - NNE 13 17 7 9 - - -
02/09:00pm - - - - - NE 15 20 8 11 - - -
02/08:30pm - - - - - NE 15 19 8 10 - - -
02/08:00pm - - - - - ENE 17 20 9 11 - - -
02/07:30pm - - - - - ENE 17 20 9 11 - - -
02/07:00pm - - - - - ENE 17 20 9 11 - - -
02/06:30pm - - - - - ENE 19 22 10 12 - - -
02/06:00pm - - - - - ENE 17 20 9 11 - - -
02/05:30pm - - - - - ENE 17 20 9 11 - - -
02/05:00pm - - - - - ENE 19 22 10 12 - - -
02/04:30pm - - - - - ENE 17 20 9 11 - - -
02/04:00pm - - - - - ENE 17 22 9 12 - - -
02/03:30pm - - - - - ENE 17 20 9 11 - - -
02/03:00pm - - - - - ENE 19 22 10 12 - - -
02/02:30pm - - - - - E 15 19 8 10 - - -
02/02:00pm - - - - - E 17 24 9 13 - - -
02/01:30pm - - - - - E 15 19 8 10 - - -
02/01:00pm - - - - - E 17 22 9 12 - - -
02/12:30pm - - - - - E 19 22 10 12 - - -
02/12:00pm - - - - - E 19 22 10 12 - - -
02/11:30am - - - - - E 17 20 9 11 - - -
02/11:00am - - - - - E 19 22 10 12 - - -
02/10:30am - - - - - E 20 24 11 13 - - -
02/10:00am - - - - - E 20 28 11 15 - - -
02/09:30am - - - - - E 24 30 13 16 - - -
02/09:00am - - - - - E 24 32 13 17 - - -
02/08:30am - - - - - E 28 33 15 18 - - -
02/08:00am - - - - - E 33 41 18 22 - - -
02/07:30am - - - - - E 33 41 18 22 - - -
02/07:00am - - - - - E 33 43 18 23 - - -
02/06:30am - - - - - ESE 32 37 17 20 - - -
02/06:00am - - - - - ESE 32 41 17 22 - - -
02/05:30am - - - - - ESE 32 39 17 21 - - -
02/05:00am - - - - - ESE 32 43 17 23 - - -
02/04:30am - - - - - ESE 32 41 17 22 - - -
02/04:00am - - - - - ESE 39 44 21 24 - - -
02/03:30am - - - - - ESE 37 44 20 24 - - -
02/03:00am - - - - - SE 41 50 22 27 - - -
02/02:30am - - - - - SE 41 48 22 26 - - -
02/02:00am - - - - - SE 41 50 22 27 - - -
02/01:30am - - - - - SE 43 56 23 30 - - -
02/01:00am - - - - - SE 43 52 23 28 - - -
02/12:30am - - - - - SE 44 56 24 30 - - -
02/12:00am - - - - - SE 44 52 24 28 - - -
 
Date/Time
EST
Temp
°C
App
Temp
°C
Dew
Point
Rel
Hum
%
Delta-T
°C
Wind Press
QNH
hPa
Press
MSL
hPa
Rain
since 9 am
mm
Dir
 
Spd
km/h
Gust
km/h
Spd
kts
Gust
kts
01/11:30pm - - - - - SE 46 59 25 32 - - -
01/11:00pm - - - - - SE 46 59 25 32 - - -
01/10:30pm - - - - - SE 48 59 26 32 - - -
01/10:00pm - - - - - SE 48 59 26 32 - - -
01/09:30pm - - - - - SE 52 65 28 35 - - -
01/09:00pm - - - - - SE 48 63 26 34 - - -
01/08:30pm - - - - - SE 44 57 24 31 - - -
01/08:00pm - - - - - SE 48 61 26 33 - - -
01/07:30pm - - - - - ESE 43 56 23 30 - - -
01/07:22pm - - - - - ESE 37 46 20 25 - - -
01/07:18pm - - - - - SE 57 76 31 41 - - -
01/07:17pm - - - - - SE 57 69 31 37 - - -
01/07:16pm - - - - - ESE 37 69 20 37 - - -
01/07:15pm - - - - - ESE 30 50 16 27 - - -
01/07:00pm - - - - - N 15 19 8 10 - - -
01/06:30pm - - - - - N 19 26 10 14 - - -
01/06:00pm - - - - - N 22 28 12 15 - - -
01/05:30pm - - - - - N 24 28 13 15 - - -
01/05:00pm - - - - - N 26 32 14 17 - - -
01/04:30pm - - - - - N 24 30 13 16 - - -
01/04:00pm - - - - - N 30 33 16 18 - - -
01/03:30pm - - - - - N 32 37 17 20 - - -
01/03:00pm - - - - - N 32 39 17 21 - - -
01/02:30pm - - - - - N 32 37 17 20 - - -
01/02:00pm - - - - - N 30 35 16 19 - - -
01/01:30pm - - - - - N 32 37 17 20 - - -
01/01:00pm - - - - - N 30 35 16 19 - - -
01/12:30pm - - - - - N 28 33 15 18 - - -
01/12:00pm - - - - - N 28 32 15 17 - - -
01/11:30am - - - - - N 28 32 15 17 - - -
01/11:00am - - - - - N 24 30 13 16 - - -
01/10:30am - - - - - N 22 26 12 14 - - -
01/10:00am - - - - - N 22 26 12 14 - - -
01/09:30am - - - - - NNW 19 24 10 13 - - -
01/09:00am - - - - - NNW 17 20 9 11 - - -
01/08:30am - - - - - NNW 26 32 14 17 - - -
01/08:00am - - - - - NNW 26 32 14 17 - - -
01/07:30am - - - - - NNW 30 33 16 18 - - -
01/07:00am - - - - - NW 32 37 17 20 - - -
01/06:30am - - - - - NNW 35 41 19 22 - - -
01/06:00am - - - - - NNW 39 46 21 25 - - -
01/05:30am - - - - - NNW 39 48 21 26 - - -
01/05:00am - - - - - NNW 39 46 21 25 - - -
01/04:30am - - - - - NW 39 48 21 26 - - -
01/04:00am - - - - - NW 35 43 19 23 - - -
01/03:30am - - - - - NW 37 46 20 25 - - -
01/03:00am - - - - - NW 39 46 21 25 - - -
01/02:30am - - - - - NNW 37 46 20 25 - - -
01/02:00am - - - - - NNW 37 46 20 25 - - -
01/01:30am - - - - - NNW 39 44 21 24 - - -
01/01:00am - - - - - NNW 35 46 19 25 - - -
01/12:30am - - - - - NNW 35 43 19 23 - - -
01/12:00am - - - - - NNW 35 43 19 23 - - -
 
Date/Time
EST
Temp
°C
App
Temp
°C
Dew
Point
Rel
Hum
%
Delta-T
°C
Wind Press
QNH
hPa
Press
MSL
hPa
Rain
since 9 am
mm
Dir
 
Spd
km/h
Gust
km/h
Spd
kts
Gust
kts
30/11:30pm - - - - - NNW 35 41 19 22 - - -
30/11:00pm - - - - - NNW 35 41 19 22 - - -
30/10:30pm - - - - - NNW 35 41 19 22 - - -
30/10:00pm - - - - - NNW 35 43 19 23 - - -
30/09:30pm - - - - - N 37 43 20 23 - - -
30/09:00pm - - - - - N 33 41 18 22 - - -
30/08:30pm - - - - - N 33 41 18 22 - - -
30/08:00pm - - - - - N 32 37 17 20 - - -
30/07:30pm - - - - - N 33 41 18 22 - - -
30/07:00pm - - - - - N 33 41 18 22 - - -
30/06:30pm - - - - - N 32 37 17 20 - - -
30/06:00pm - - - - - N 30 37 16 20 - - -
30/05:30pm - - - - - N 33 39 18 21 - - -
30/05:00pm - - - - - N 32 37 17 20 - - -
30/04:30pm - - - - - N 32 39 17 21 - - -
30/04:00pm - - - - - N 33 41 18 22 - - -
30/03:30pm - - - - - N 32 37 17 20 - - -
30/03:00pm - - - - - N 33 37 18 20 - - -
30/02:30pm - - - - - N 33 37 18 20 - - -
30/02:00pm - - - - - N 30 35 16 19 - - -
30/01:30pm - - - - - N 32 35 17 19 - - -
30/01:00pm - - - - - N 30 33 16 18 - - -
30/12:30pm - - - - - N 30 35 16 19 - - -
30/12:00pm - - - - - N 32 37 17 20 - - -
30/11:30am - - - - - N 30 35 16 19 - - -
30/11:00am - - - - - N 26 32 14 17 - - -
30/10:30am - - - - - N 22 26 12 14 - - -
30/10:00am - - - - - NNW 17 20 9 11 - - -
30/09:30am - - - - - NNW 15 17 8 9 - - -
30/09:00am - - - - - NNW 13 17 7 9 - - -
30/08:30am - - - - - NW 13 15 7 8 - - -
30/08:00am - - - - - NW 15 17 8 9 - - -
30/07:30am - - - - - NW 13 15 7 8 - - -
30/07:00am - - - - - NW 15 17 8 9 - - -
30/06:30am - - - - - NW 17 19 9 10 - - -
30/06:00am - - - - - NW 19 22 10 12 - - -
30/05:30am - - - - - NW 19 20 10 11 - - -
30/05:00am - - - - - NW 19 22 10 12 - - -
30/04:30am - - - - - NW 17 20 9 11 - - -
30/04:00am - - - - - NW 17 20 9 11 - - -
30/03:30am - - - - - NW 17 20 9 11 - - -
30/03:00am - - - - - NW 20 24 11 13 - - -
30/02:30am - - - - - NW 20 24 11 13 - - -

Other Formats:

Comma delimited format used in spreadsheet applications
http://www.bom.gov.au/fwo/IDQ60801/IDQ60801.94581.axf

JavaScript Object Notation format (JSON) in row-major order
http://www.bom.gov.au/fwo/IDQ60801/IDQ60801.94581.json